sensor_id;sensor_type;location;lat;lon;timestamp;P1;durP1;ratioP1;P2;durP2;ratioP2
15398;SDS011;7797;51.428;6.756;2023-11-19T00:00:07;4.63;;;4.13;;
15398;SDS011;7797;51.428;6.756;2023-11-19T00:02:40;4.57;;;4.10;;
15398;SDS011;7797;51.428;6.756;2023-11-19T00:05:08;4.20;;;3.80;;
15398;SDS011;7797;51.428;6.756;2023-11-19T00:07:39;4.60;;;4.10;;
15398;SDS011;7797;51.428;6.756;2023-11-19T00:10:10;4.17;;;3.77;;
15398;SDS011;7797;51.428;6.756;2023-11-19T00:12:38;4.07;;;3.67;;
15398;SDS011;7797;51.428;6.756;2023-11-19T00:15:06;4.40;;;4.00;;
15398;SDS011;7797;51.428;6.756;2023-11-19T00:17:38;3.83;;;3.53;;
15398;SDS011;7797;51.428;6.756;2023-11-19T00:20:12;3.70;;;3.40;;
15398;SDS011;7797;51.428;6.756;2023-11-19T00:22:40;3.80;;;3.40;;
15398;SDS011;7797;51.428;6.756;2023-11-19T00:25:11;3.40;;;3.03;;
15398;SDS011;7797;51.428;6.756;2023-11-19T00:27:37;3.80;;;3.50;;
15398;SDS011;7797;51.428;6.756;2023-11-19T00:30:05;3.90;;;3.60;;
15398;SDS011;7797;51.428;6.756;2023-11-19T00:32:32;4.17;;;3.77;;
15398;SDS011;7797;51.428;6.756;2023-11-19T00:34:59;5.30;;;4.00;;
15398;SDS011;7797;51.428;6.756;2023-11-19T00:37:26;4.37;;;3.97;;
15398;SDS011;7797;51.428;6.756;2023-11-19T00:39:53;5.40;;;4.10;;
15398;SDS011;7797;51.428;6.756;2023-11-19T00:42:22;4.23;;;3.83;;
15398;SDS011;7797;51.428;6.756;2023-11-19T00:44:51;5.27;;;4.43;;
15398;SDS011;7797;51.428;6.756;2023-11-19T00:47:18;4.70;;;4.17;;
15398;SDS011;7797;51.428;6.756;2023-11-19T00:49:48;4.63;;;4.20;;
15398;SDS011;7797;51.428;6.756;2023-11-19T00:52:17;4.57;;;4.17;;
15398;SDS011;7797;51.428;6.756;2023-11-19T00:54:45;5.23;;;4.23;;
15398;SDS011;7797;51.428;6.756;2023-11-19T00:57:11;4.43;;;4.07;;
15398;SDS011;7797;51.428;6.756;2023-11-19T00:59:41;4.27;;;3.90;;
15398;SDS011;7797;51.428;6.756;2023-11-19T01:02:08;3.87;;;3.47;;
15398;SDS011;7797;51.428;6.756;2023-11-19T01:04:35;3.70;;;3.40;;
15398;SDS011;7797;51.428;6.756;2023-11-19T01:07:03;4.60;;;3.50;;
15398;SDS011;7797;51.428;6.756;2023-11-19T01:09:31;3.20;;;3.00;;
15398;SDS011;7797;51.428;6.756;2023-11-19T01:12:03;3.63;;;3.33;;
15398;SDS011;7797;51.428;6.756;2023-11-19T01:14:30;3.70;;;2.80;;
15398;SDS011;7797;51.428;6.756;2023-11-19T01:16:57;3.30;;;3.00;;
15398;SDS011;7797;51.428;6.756;2023-11-19T01:19:24;3.10;;;2.80;;
15398;SDS011;7797;51.428;6.756;2023-11-19T01:21:51;2.90;;;2.70;;
15398;SDS011;7797;51.428;6.756;2023-11-19T01:24:18;3.80;;;2.80;;
15398;SDS011;7797;51.428;6.756;2023-11-19T01:26:45;3.23;;;2.90;;
15398;SDS011;7797;51.428;6.756;2023-11-19T01:29:13;2.93;;;2.73;;
15398;SDS011;7797;51.428;6.756;2023-11-19T01:31:41;3.33;;;2.80;;
15398;SDS011;7797;51.428;6.756;2023-11-19T01:34:08;2.80;;;2.60;;
15398;SDS011;7797;51.428;6.756;2023-11-19T01:36:35;3.43;;;3.03;;
15398;SDS011;7797;51.428;6.756;2023-11-19T01:39:01;3.00;;;2.70;;
15398;SDS011;7797;51.428;6.756;2023-11-19T01:41:34;3.23;;;2.60;;
15398;SDS011;7797;51.428;6.756;2023-11-19T01:44:02;2.93;;;2.73;;
15398;SDS011;7797;51.428;6.756;2023-11-19T01:46:29;3.53;;;3.23;;
15398;SDS011;7797;51.428;6.756;2023-11-19T01:48:59;3.83;;;3.30;;
15398;SDS011;7797;51.428;6.756;2023-11-19T01:51:27;3.50;;;3.20;;
15398;SDS011;7797;51.428;6.756;2023-11-19T01:53:54;3.63;;;3.27;;
15398;SDS011;7797;51.428;6.756;2023-11-19T01:56:22;3.83;;;3.50;;
15398;SDS011;7797;51.428;6.756;2023-11-19T01:58:49;3.70;;;3.40;;
15398;SDS011;7797;51.428;6.756;2023-11-19T02:01:16;5.17;;;3.90;;
15398;SDS011;7797;51.428;6.756;2023-11-19T02:03:43;5.03;;;3.47;;
15398;SDS011;7797;51.428;6.756;2023-11-19T02:06:10;4.17;;;3.67;;
15398;SDS011;7797;51.428;6.756;2023-11-19T02:08:37;4.77;;;3.80;;
15398;SDS011;7797;51.428;6.756;2023-11-19T02:11:05;3.50;;;3.20;;
15398;SDS011;7797;51.428;6.756;2023-11-19T02:13:33;3.60;;;3.30;;
15398;SDS011;7797;51.428;6.756;2023-11-19T02:16:02;4.20;;;3.00;;
15398;SDS011;7797;51.428;6.756;2023-11-19T02:18:30;2.97;;;2.67;;
15398;SDS011;7797;51.428;6.756;2023-11-19T02:20:57;3.97;;;2.90;;
15398;SDS011;7797;51.428;6.756;2023-11-19T02:23:28;3.33;;;2.70;;
15398;SDS011;7797;51.428;6.756;2023-11-19T02:29:01;4.87;;;3.70;;
15398;SDS011;7797;51.428;6.756;2023-11-19T02:31:33;7.63;;;4.40;;
15398;SDS011;7797;51.428;6.756;2023-11-19T02:34:01;9.67;;;3.77;;
15398;SDS011;7797;51.428;6.756;2023-11-19T02:36:29;6.50;;;3.70;;
15398;SDS011;7797;51.428;6.756;2023-11-19T02:38:56;7.43;;;3.37;;
15398;SDS011;7797;51.428;6.756;2023-11-19T02:41:22;7.33;;;2.70;;
15398;SDS011;7797;51.428;6.756;2023-11-19T02:43:50;5.93;;;3.10;;
15398;SDS011;7797;51.428;6.756;2023-11-19T02:46:16;7.33;;;2.80;;
15398;SDS011;7797;51.428;6.756;2023-11-19T02:48:45;5.87;;;2.80;;
15398;SDS011;7797;51.428;6.756;2023-11-19T02:51:13;4.63;;;2.33;;
15398;SDS011;7797;51.428;6.756;2023-11-19T02:53:39;5.07;;;2.40;;
15398;SDS011;7797;51.428;6.756;2023-11-19T02:56:07;6.30;;;2.40;;
15398;SDS011;7797;51.428;6.756;2023-11-19T02:58:52;7.33;;;3.00;;
15398;SDS011;7797;51.428;6.756;2023-11-19T03:01:26;8.13;;;2.70;;
15398;SDS011;7797;51.428;6.756;2023-11-19T03:04:00;8.53;;;3.00;;
15398;SDS011;7797;51.428;6.756;2023-11-19T03:06:29;5.43;;;3.07;;
15398;SDS011;7797;51.428;6.756;2023-11-19T03:08:56;5.43;;;3.23;;
15398;SDS011;7797;51.428;6.756;2023-11-19T03:11:23;4.00;;;2.50;;
15398;SDS011;7797;51.428;6.756;2023-11-19T03:13:51;6.93;;;3.00;;
15398;SDS011;7797;51.428;6.756;2023-11-19T03:16:17;5.43;;;3.00;;
15398;SDS011;7797;51.428;6.756;2023-11-19T03:18:44;6.97;;;3.17;;
15398;SDS011;7797;51.428;6.756;2023-11-19T03:21:11;5.73;;;2.87;;
15398;SDS011;7797;51.428;6.756;2023-11-19T03:23:39;6.00;;;2.60;;
15398;SDS011;7797;51.428;6.756;2023-11-19T03:26:06;5.03;;;2.50;;
15398;SDS011;7797;51.428;6.756;2023-11-19T03:28:34;8.90;;;2.63;;
15398;SDS011;7797;51.428;6.756;2023-11-19T03:31:04;7.67;;;2.60;;
15398;SDS011;7797;51.428;6.756;2023-11-19T03:33:31;8.20;;;2.37;;
15398;SDS011;7797;51.428;6.756;2023-11-19T03:35:58;7.47;;;2.67;;
15398;SDS011;7797;51.428;6.756;2023-11-19T03:38:25;9.80;;;2.97;;
15398;SDS011;7797;51.428;6.756;2023-11-19T03:40:51;7.23;;;2.67;;
15398;SDS011;7797;51.428;6.756;2023-11-19T03:43:18;6.60;;;2.10;;
15398;SDS011;7797;51.428;6.756;2023-11-19T03:45:48;8.20;;;2.50;;
15398;SDS011;7797;51.428;6.756;2023-11-19T03:48:15;5.00;;;2.23;;
15398;SDS011;7797;51.428;6.756;2023-11-19T03:50:43;6.83;;;2.20;;
15398;SDS011;7797;51.428;6.756;2023-11-19T03:53:11;11.63;;;2.50;;
15398;SDS011;7797;51.428;6.756;2023-11-19T03:55:38;9.77;;;2.70;;
15398;SDS011;7797;51.428;6.756;2023-11-19T03:58:05;6.03;;;2.43;;
15398;SDS011;7797;51.428;6.756;2023-11-19T04:00:32;8.27;;;2.67;;
15398;SDS011;7797;51.428;6.756;2023-11-19T04:02:59;7.23;;;2.23;;
15398;SDS011;7797;51.428;6.756;2023-11-19T04:05:27;9.00;;;2.80;;
15398;SDS011;7797;51.428;6.756;2023-11-19T04:07:54;7.60;;;2.50;;
15398;SDS011;7797;51.428;6.756;2023-11-19T04:10:20;11.93;;;2.20;;
15398;SDS011;7797;51.428;6.756;2023-11-19T04:12:49;6.73;;;2.50;;
15398;SDS011;7797;51.428;6.756;2023-11-19T04:15:16;7.43;;;2.53;;
15398;SDS011;7797;51.428;6.756;2023-11-19T04:17:43;11.40;;;3.07;;
15398;SDS011;7797;51.428;6.756;2023-11-19T04:20:10;9.07;;;3.13;;
15398;SDS011;7797;51.428;6.756;2023-11-19T04:22:41;7.20;;;2.13;;
15398;SDS011;7797;51.428;6.756;2023-11-19T04:25:08;11.87;;;2.60;;
15398;SDS011;7797;51.428;6.756;2023-11-19T04:27:36;11.40;;;2.70;;
15398;SDS011;7797;51.428;6.756;2023-11-19T04:30:03;7.53;;;2.27;;
15398;SDS011;7797;51.428;6.756;2023-11-19T04:32:32;9.03;;;2.40;;
15398;SDS011;7797;51.428;6.756;2023-11-19T04:34:58;9.03;;;2.30;;
15398;SDS011;7797;51.428;6.756;2023-11-19T04:37:25;9.63;;;2.50;;
15398;SDS011;7797;51.428;6.756;2023-11-19T04:39:52;9.30;;;2.60;;
15398;SDS011;7797;51.428;6.756;2023-11-19T04:42:19;9.00;;;2.63;;
15398;SDS011;7797;51.428;6.756;2023-11-19T04:44:46;9.13;;;2.50;;
15398;SDS011;7797;51.428;6.756;2023-11-19T04:47:13;10.20;;;2.60;;
15398;SDS011;7797;51.428;6.756;2023-11-19T04:49:40;11.07;;;3.07;;
15398;SDS011;7797;51.428;6.756;2023-11-19T04:52:10;13.43;;;3.33;;
15398;SDS011;7797;51.428;6.756;2023-11-19T04:54:42;12.60;;;5.07;;
15398;SDS011;7797;51.428;6.756;2023-11-19T04:57:12;18.67;;;4.50;;
15398;SDS011;7797;51.428;6.756;2023-11-19T04:59:39;13.83;;;3.50;;
15398;SDS011;7797;51.428;6.756;2023-11-19T05:02:06;12.80;;;2.90;;
15398;SDS011;7797;51.428;6.756;2023-11-19T05:04:32;8.67;;;2.63;;
15398;SDS011;7797;51.428;6.756;2023-11-19T05:06:59;12.17;;;3.13;;
15398;SDS011;7797;51.428;6.756;2023-11-19T05:09:26;7.33;;;2.83;;
15398;SDS011;7797;51.428;6.756;2023-11-19T05:11:53;8.20;;;3.10;;
15398;SDS011;7797;51.428;6.756;2023-11-19T05:14:20;15.10;;;3.20;;
15398;SDS011;7797;51.428;6.756;2023-11-19T05:16:48;8.93;;;2.40;;
15398;SDS011;7797;51.428;6.756;2023-11-19T05:19:15;10.70;;;2.57;;
15398;SDS011;7797;51.428;6.756;2023-11-19T05:21:42;12.07;;;2.37;;
15398;SDS011;7797;51.428;6.756;2023-11-19T05:24:10;11.07;;;2.77;;
15398;SDS011;7797;51.428;6.756;2023-11-19T05:26:38;13.67;;;2.77;;
15398;SDS011;7797;51.428;6.756;2023-11-19T05:29:05;9.17;;;2.60;;
15398;SDS011;7797;51.428;6.756;2023-11-19T05:31:32;9.67;;;2.83;;
15398;SDS011;7797;51.428;6.756;2023-11-19T05:34:02;11.20;;;2.97;;
15398;SDS011;7797;51.428;6.756;2023-11-19T05:36:29;10.27;;;2.93;;
15398;SDS011;7797;51.428;6.756;2023-11-19T05:38:56;11.07;;;2.60;;
15398;SDS011;7797;51.428;6.756;2023-11-19T05:41:23;8.00;;;2.77;;
15398;SDS011;7797;51.428;6.756;2023-11-19T05:43:50;9.13;;;2.80;;
15398;SDS011;7797;51.428;6.756;2023-11-19T05:46:18;12.47;;;3.30;;
15398;SDS011;7797;51.428;6.756;2023-11-19T05:48:46;10.77;;;3.17;;
15398;SDS011;7797;51.428;6.756;2023-11-19T05:51:14;11.03;;;3.07;;
15398;SDS011;7797;51.428;6.756;2023-11-19T05:53:43;9.03;;;2.63;;
15398;SDS011;7797;51.428;6.756;2023-11-19T05:56:12;11.30;;;3.63;;
15398;SDS011;7797;51.428;6.756;2023-11-19T05:58:40;14.23;;;3.07;;
15398;SDS011;7797;51.428;6.756;2023-11-19T06:01:06;12.93;;;2.53;;
15398;SDS011;7797;51.428;6.756;2023-11-19T06:03:35;11.53;;;3.00;;
15398;SDS011;7797;51.428;6.756;2023-11-19T06:06:01;11.00;;;3.07;;
15398;SDS011;7797;51.428;6.756;2023-11-19T06:08:28;13.60;;;3.17;;
15398;SDS011;7797;51.428;6.756;2023-11-19T06:10:57;13.27;;;3.23;;
15398;SDS011;7797;51.428;6.756;2023-11-19T06:13:24;11.27;;;3.10;;
15398;SDS011;7797;51.428;6.756;2023-11-19T06:15:52;13.40;;;3.67;;
15398;SDS011;7797;51.428;6.756;2023-11-19T06:18:19;12.63;;;3.70;;
15398;SDS011;7797;51.428;6.756;2023-11-19T06:20:47;11.40;;;2.77;;
15398;SDS011;7797;51.428;6.756;2023-11-19T06:23:13;11.07;;;2.60;;
15398;SDS011;7797;51.428;6.756;2023-11-19T06:25:40;14.53;;;3.10;;
15398;SDS011;7797;51.428;6.756;2023-11-19T06:28:07;16.10;;;2.90;;
15398;SDS011;7797;51.428;6.756;2023-11-19T06:30:34;11.60;;;2.93;;
15398;SDS011;7797;51.428;6.756;2023-11-19T06:33:02;9.30;;;2.60;;
15398;SDS011;7797;51.428;6.756;2023-11-19T06:35:30;16.03;;;3.00;;
15398;SDS011;7797;51.428;6.756;2023-11-19T06:38:03;11.73;;;2.93;;
15398;SDS011;7797;51.428;6.756;2023-11-19T06:40:33;15.93;;;3.30;;
15398;SDS011;7797;51.428;6.756;2023-11-19T06:43:01;10.30;;;2.37;;
15398;SDS011;7797;51.428;6.756;2023-11-19T06:45:31;14.03;;;3.27;;
15398;SDS011;7797;51.428;6.756;2023-11-19T06:48:00;15.33;;;3.40;;
15398;SDS011;7797;51.428;6.756;2023-11-19T06:50:28;12.23;;;2.73;;
15398;SDS011;7797;51.428;6.756;2023-11-19T06:52:55;11.80;;;2.83;;
15398;SDS011;7797;51.428;6.756;2023-11-19T06:55:25;12.83;;;3.30;;
15398;SDS011;7797;51.428;6.756;2023-11-19T06:57:52;15.33;;;4.17;;
15398;SDS011;7797;51.428;6.756;2023-11-19T07:00:19;13.17;;;3.10;;
15398;SDS011;7797;51.428;6.756;2023-11-19T07:02:46;13.30;;;2.87;;
15398;SDS011;7797;51.428;6.756;2023-11-19T07:05:13;10.70;;;2.90;;
15398;SDS011;7797;51.428;6.756;2023-11-19T07:07:40;11.83;;;2.77;;
15398;SDS011;7797;51.428;6.756;2023-11-19T07:10:07;17.30;;;3.33;;
15398;SDS011;7797;51.428;6.756;2023-11-19T07:12:36;11.27;;;2.73;;
15398;SDS011;7797;51.428;6.756;2023-11-19T07:15:03;10.63;;;2.30;;
15398;SDS011;7797;51.428;6.756;2023-11-19T07:17:30;14.97;;;2.70;;
15398;SDS011;7797;51.428;6.756;2023-11-19T07:19:57;13.77;;;3.33;;
15398;SDS011;7797;51.428;6.756;2023-11-19T07:22:26;12.03;;;2.60;;
15398;SDS011;7797;51.428;6.756;2023-11-19T07:24:56;13.00;;;2.80;;
15398;SDS011;7797;51.428;6.756;2023-11-19T07:27:23;12.97;;;3.33;;
15398;SDS011;7797;51.428;6.756;2023-11-19T07:29:51;11.30;;;2.50;;
15398;SDS011;7797;51.428;6.756;2023-11-19T07:32:18;12.63;;;2.93;;
15398;SDS011;7797;51.428;6.756;2023-11-19T07:34:45;8.83;;;2.90;;
15398;SDS011;7797;51.428;6.756;2023-11-19T07:37:12;10.10;;;2.40;;
15398;SDS011;7797;51.428;6.756;2023-11-19T07:39:38;13.43;;;3.07;;
15398;SDS011;7797;51.428;6.756;2023-11-19T07:42:07;11.30;;;2.70;;
15398;SDS011;7797;51.428;6.756;2023-11-19T07:44:36;7.20;;;2.93;;
15398;SDS011;7797;51.428;6.756;2023-11-19T07:47:03;8.33;;;2.80;;
15398;SDS011;7797;51.428;6.756;2023-11-19T07:49:30;12.03;;;2.80;;
15398;SDS011;7797;51.428;6.756;2023-11-19T07:51:57;13.80;;;3.57;;
15398;SDS011;7797;51.428;6.756;2023-11-19T07:54:24;14.97;;;2.97;;
15398;SDS011;7797;51.428;6.756;2023-11-19T07:56:51;14.90;;;2.87;;
15398;SDS011;7797;51.428;6.756;2023-11-19T07:59:19;14.90;;;2.80;;
15398;SDS011;7797;51.428;6.756;2023-11-19T08:01:45;13.80;;;3.07;;
15398;SDS011;7797;51.428;6.756;2023-11-19T08:04:12;17.67;;;3.37;;
15398;SDS011;7797;51.428;6.756;2023-11-19T08:06:39;14.57;;;3.00;;
15398;SDS011;7797;51.428;6.756;2023-11-19T08:09:06;14.40;;;3.07;;
15398;SDS011;7797;51.428;6.756;2023-11-19T08:11:43;11.53;;;3.20;;
15398;SDS011;7797;51.428;6.756;2023-11-19T08:14:10;22.00;;;5.50;;
15398;SDS011;7797;51.428;6.756;2023-11-19T08:16:41;14.60;;;3.60;;
15398;SDS011;7797;51.428;6.756;2023-11-19T08:19:08;17.67;;;3.87;;
15398;SDS011;7797;51.428;6.756;2023-11-19T08:21:35;13.87;;;3.47;;
15398;SDS011;7797;51.428;6.756;2023-11-19T08:24:01;14.47;;;2.90;;
15398;SDS011;7797;51.428;6.756;2023-11-19T08:26:28;14.43;;;3.23;;
15398;SDS011;7797;51.428;6.756;2023-11-19T08:28:55;11.80;;;3.40;;
15398;SDS011;7797;51.428;6.756;2023-11-19T08:31:24;13.57;;;3.23;;
15398;SDS011;7797;51.428;6.756;2023-11-19T08:33:51;14.97;;;3.10;;
15398;SDS011;7797;51.428;6.756;2023-11-19T08:36:18;13.57;;;3.30;;
15398;SDS011;7797;51.428;6.756;2023-11-19T08:38:45;9.70;;;2.70;;
15398;SDS011;7797;51.428;6.756;2023-11-19T08:41:12;15.53;;;3.80;;
15398;SDS011;7797;51.428;6.756;2023-11-19T08:43:39;14.23;;;3.40;;
15398;SDS011;7797;51.428;6.756;2023-11-19T08:46:12;11.37;;;3.20;;
15398;SDS011;7797;51.428;6.756;2023-11-19T08:48:40;19.17;;;4.10;;
15398;SDS011;7797;51.428;6.756;2023-11-19T08:51:07;11.13;;;3.07;;
15398;SDS011;7797;51.428;6.756;2023-11-19T08:53:34;10.43;;;3.23;;
15398;SDS011;7797;51.428;6.756;2023-11-19T08:56:01;9.43;;;2.97;;
15398;SDS011;7797;51.428;6.756;2023-11-19T08:58:29;11.73;;;2.87;;
15398;SDS011;7797;51.428;6.756;2023-11-19T09:00:57;13.67;;;3.20;;
15398;SDS011;7797;51.428;6.756;2023-11-19T09:03:24;13.83;;;3.53;;
15398;SDS011;7797;51.428;6.756;2023-11-19T09:05:53;14.07;;;2.93;;
15398;SDS011;7797;51.428;6.756;2023-11-19T09:08:20;13.77;;;3.23;;
15398;SDS011;7797;51.428;6.756;2023-11-19T09:10:46;13.60;;;3.37;;
15398;SDS011;7797;51.428;6.756;2023-11-19T09:13:13;11.93;;;3.30;;
15398;SDS011;7797;51.428;6.756;2023-11-19T09:15:40;13.77;;;3.27;;
15398;SDS011;7797;51.428;6.756;2023-11-19T09:18:09;12.53;;;3.30;;
15398;SDS011;7797;51.428;6.756;2023-11-19T09:20:36;12.50;;;3.17;;
15398;SDS011;7797;51.428;6.756;2023-11-19T09:23:05;15.73;;;3.80;;
15398;SDS011;7797;51.428;6.756;2023-11-19T09:25:35;11.23;;;2.90;;
15398;SDS011;7797;51.428;6.756;2023-11-19T09:28:05;8.60;;;2.80;;
15398;SDS011;7797;51.428;6.756;2023-11-19T09:30:32;15.03;;;3.10;;
15398;SDS011;7797;51.428;6.756;2023-11-19T09:33:00;14.63;;;3.03;;
15398;SDS011;7797;51.428;6.756;2023-11-19T09:35:27;14.80;;;3.57;;
15398;SDS011;7797;51.428;6.756;2023-11-19T09:37:54;15.37;;;3.20;;
15398;SDS011;7797;51.428;6.756;2023-11-19T09:40:21;13.43;;;3.13;;
15398;SDS011;7797;51.428;6.756;2023-11-19T09:42:48;10.43;;;2.93;;
15398;SDS011;7797;51.428;6.756;2023-11-19T09:45:15;13.87;;;3.17;;
15398;SDS011;7797;51.428;6.756;2023-11-19T09:47:44;13.43;;;3.50;;
15398;SDS011;7797;51.428;6.756;2023-11-19T09:50:14;14.43;;;3.67;;
15398;SDS011;7797;51.428;6.756;2023-11-19T09:52:43;14.40;;;2.87;;
15398;SDS011;7797;51.428;6.756;2023-11-19T09:55:10;15.37;;;3.30;;
15398;SDS011;7797;51.428;6.756;2023-11-19T09:57:40;11.13;;;3.00;;
15398;SDS011;7797;51.428;6.756;2023-11-19T10:00:08;15.20;;;3.20;;
15398;SDS011;7797;51.428;6.756;2023-11-19T10:02:37;10.03;;;3.27;;
15398;SDS011;7797;51.428;6.756;2023-11-19T10:05:06;17.90;;;3.90;;
15398;SDS011;7797;51.428;6.756;2023-11-19T10:07:33;11.50;;;2.50;;
15398;SDS011;7797;51.428;6.756;2023-11-19T10:10:01;15.03;;;3.10;;
15398;SDS011;7797;51.428;6.756;2023-11-19T10:12:30;13.47;;;3.13;;
15398;SDS011;7797;51.428;6.756;2023-11-19T10:14:57;19.77;;;3.57;;
15398;SDS011;7797;51.428;6.756;2023-11-19T10:17:28;14.57;;;3.07;;
15398;SDS011;7797;51.428;6.756;2023-11-19T10:19:58;16.00;;;3.60;;
15398;SDS011;7797;51.428;6.756;2023-11-19T10:22:26;14.77;;;3.00;;
15398;SDS011;7797;51.428;6.756;2023-11-19T10:24:54;12.40;;;3.87;;
15398;SDS011;7797;51.428;6.756;2023-11-19T10:27:23;17.13;;;3.10;;
15398;SDS011;7797;51.428;6.756;2023-11-19T10:29:52;15.87;;;3.23;;
15398;SDS011;7797;51.428;6.756;2023-11-19T10:32:19;14.90;;;2.87;;
15398;SDS011;7797;51.428;6.756;2023-11-19T10:34:52;17.47;;;3.60;;
15398;SDS011;7797;51.428;6.756;2023-11-19T10:37:31;18.43;;;3.13;;
15398;SDS011;7797;51.428;6.756;2023-11-19T10:39:59;9.00;;;2.80;;
15398;SDS011;7797;51.428;6.756;2023-11-19T10:42:26;16.07;;;3.90;;
15398;SDS011;7797;51.428;6.756;2023-11-19T10:44:53;14.13;;;3.43;;
15398;SDS011;7797;51.428;6.756;2023-11-19T10:47:20;14.90;;;3.27;;
15398;SDS011;7797;51.428;6.756;2023-11-19T10:49:52;16.13;;;3.23;;
15398;SDS011;7797;51.428;6.756;2023-11-19T10:52:19;15.37;;;3.60;;
15398;SDS011;7797;51.428;6.756;2023-11-19T10:54:50;15.37;;;3.37;;
15398;SDS011;7797;51.428;6.756;2023-11-19T10:57:21;12.63;;;3.87;;
15398;SDS011;7797;51.428;6.756;2023-11-19T10:59:55;13.07;;;2.50;;
15398;SDS011;7797;51.428;6.756;2023-11-19T11:02:28;9.80;;;2.60;;
15398;SDS011;7797;51.428;6.756;2023-11-19T11:04:56;12.80;;;3.03;;
15398;SDS011;7797;51.428;6.756;2023-11-19T11:07:23;9.27;;;2.13;;
15398;SDS011;7797;51.428;6.756;2023-11-19T11:10:05;11.20;;;2.60;;
15398;SDS011;7797;51.428;6.756;2023-11-19T11:12:36;12.83;;;2.73;;
15398;SDS011;7797;51.428;6.756;2023-11-19T11:15:04;14.17;;;3.17;;
15398;SDS011;7797;51.428;6.756;2023-11-19T11:17:33;17.60;;;3.43;;
15398;SDS011;7797;51.428;6.756;2023-11-19T11:20:00;9.80;;;2.57;;
15398;SDS011;7797;51.428;6.756;2023-11-19T11:22:29;8.00;;;2.47;;
15398;SDS011;7797;51.428;6.756;2023-11-19T11:25:32;10.17;;;2.83;;
15398;SDS011;7797;51.428;6.756;2023-11-19T11:28:05;11.87;;;2.90;;
15398;SDS011;7797;51.428;6.756;2023-11-19T11:36:30;7.47;;;2.60;;
15398;SDS011;7797;51.428;6.756;2023-11-19T11:38:58;13.63;;;3.33;;
15398;SDS011;7797;51.428;6.756;2023-11-19T11:41:34;13.63;;;3.07;;
15398;SDS011;7797;51.428;6.756;2023-11-19T11:44:01;10.93;;;2.83;;
15398;SDS011;7797;51.428;6.756;2023-11-19T11:54:14;12.00;;;2.57;;
15398;SDS011;7797;51.428;6.756;2023-11-19T11:57:02;9.47;;;3.30;;
15398;SDS011;7797;51.428;6.756;2023-11-19T12:02:09;10.23;;;2.90;;
15398;SDS011;7797;51.428;6.756;2023-11-19T12:04:36;13.67;;;2.73;;
15398;SDS011;7797;51.428;6.756;2023-11-19T12:07:04;10.17;;;2.70;;
15398;SDS011;7797;51.428;6.756;2023-11-19T12:09:32;9.40;;;3.00;;
15398;SDS011;7797;51.428;6.756;2023-11-19T12:12:17;12.70;;;2.83;;
15398;SDS011;7797;51.428;6.756;2023-11-19T12:20:07;12.13;;;3.20;;
15398;SDS011;7797;51.428;6.756;2023-11-19T12:22:38;7.63;;;2.33;;
15398;SDS011;7797;51.428;6.756;2023-11-19T12:25:06;10.07;;;2.83;;
15398;SDS011;7797;51.428;6.756;2023-11-19T12:27:33;7.37;;;2.60;;
15398;SDS011;7797;51.428;6.756;2023-11-19T12:30:01;10.47;;;3.00;;
15398;SDS011;7797;51.428;6.756;2023-11-19T12:32:37;9.30;;;2.90;;
15398;SDS011;7797;51.428;6.756;2023-11-19T12:35:08;8.43;;;3.10;;
15398;SDS011;7797;51.428;6.756;2023-11-19T12:37:41;10.07;;;2.70;;
15398;SDS011;7797;51.428;6.756;2023-11-19T12:40:16;10.57;;;2.67;;
15398;SDS011;7797;51.428;6.756;2023-11-19T12:42:46;7.70;;;2.67;;
15398;SDS011;7797;51.428;6.756;2023-11-19T12:45:14;9.23;;;2.17;;
15398;SDS011;7797;51.428;6.756;2023-11-19T12:47:45;9.03;;;2.60;;
15398;SDS011;7797;51.428;6.756;2023-11-19T12:50:16;6.03;;;2.17;;
15398;SDS011;7797;51.428;6.756;2023-11-19T12:52:56;7.47;;;3.00;;
15398;SDS011;7797;51.428;6.756;2023-11-19T12:55:24;6.47;;;2.13;;
15398;SDS011;7797;51.428;6.756;2023-11-19T12:57:56;6.90;;;2.07;;
15398;SDS011;7797;51.428;6.756;2023-11-19T13:00:27;7.37;;;2.13;;
15398;SDS011;7797;51.428;6.756;2023-11-19T13:02:55;7.60;;;2.10;;
15398;SDS011;7797;51.428;6.756;2023-11-19T13:05:32;5.70;;;1.67;;
15398;SDS011;7797;51.428;6.756;2023-11-19T13:08:04;5.73;;;1.87;;
15398;SDS011;7797;51.428;6.756;2023-11-19T13:10:51;9.10;;;1.90;;
15398;SDS011;7797;51.428;6.756;2023-11-19T13:13:20;4.60;;;2.07;;
15398;SDS011;7797;51.428;6.756;2023-11-19T13:15:46;9.97;;;2.90;;
15398;SDS011;7797;51.428;6.756;2023-11-19T13:18:15;6.90;;;2.30;;
15398;SDS011;7797;51.428;6.756;2023-11-19T13:20:42;9.27;;;2.30;;
15398;SDS011;7797;51.428;6.756;2023-11-19T13:23:10;8.70;;;2.57;;
15398;SDS011;7797;51.428;6.756;2023-11-19T13:25:43;8.37;;;2.50;;
15398;SDS011;7797;51.428;6.756;2023-11-19T13:28:12;10.40;;;3.50;;
15398;SDS011;7797;51.428;6.756;2023-11-19T13:30:38;11.63;;;4.40;;
15398;SDS011;7797;51.428;6.756;2023-11-19T13:33:05;13.00;;;4.30;;
15398;SDS011;7797;51.428;6.756;2023-11-19T13:35:32;14.27;;;4.57;;
15398;SDS011;7797;51.428;6.756;2023-11-19T13:37:59;11.40;;;3.80;;
15398;SDS011;7797;51.428;6.756;2023-11-19T13:40:26;11.13;;;3.27;;
15398;SDS011;7797;51.428;6.756;2023-11-19T13:42:53;11.90;;;3.63;;
15398;SDS011;7797;51.428;6.756;2023-11-19T13:45:20;10.27;;;3.43;;
15398;SDS011;7797;51.428;6.756;2023-11-19T13:47:47;8.77;;;2.77;;
15398;SDS011;7797;51.428;6.756;2023-11-19T13:50:14;8.53;;;3.10;;
15398;SDS011;7797;51.428;6.756;2023-11-19T13:52:46;8.13;;;3.33;;
15398;SDS011;7797;51.428;6.756;2023-11-19T13:55:14;12.83;;;3.20;;
15398;SDS011;7797;51.428;6.756;2023-11-19T13:57:41;8.73;;;3.77;;
15398;SDS011;7797;51.428;6.756;2023-11-19T14:00:09;11.97;;;3.27;;
15398;SDS011;7797;51.428;6.756;2023-11-19T14:02:42;8.80;;;3.37;;
15398;SDS011;7797;51.428;6.756;2023-11-19T14:05:09;8.37;;;3.23;;
15398;SDS011;7797;51.428;6.756;2023-11-19T14:07:39;8.37;;;2.83;;
15398;SDS011;7797;51.428;6.756;2023-11-19T14:10:07;9.10;;;3.10;;
15398;SDS011;7797;51.428;6.756;2023-11-19T14:12:43;10.77;;;3.10;;
15398;SDS011;7797;51.428;6.756;2023-11-19T14:15:10;7.70;;;2.50;;
15398;SDS011;7797;51.428;6.756;2023-11-19T14:17:39;11.27;;;2.80;;
15398;SDS011;7797;51.428;6.756;2023-11-19T14:20:09;11.53;;;2.33;;
15398;SDS011;7797;51.428;6.756;2023-11-19T14:22:39;7.93;;;2.43;;
15398;SDS011;7797;51.428;6.756;2023-11-19T14:25:07;8.43;;;2.53;;
15398;SDS011;7797;51.428;6.756;2023-11-19T14:27:45;8.40;;;2.60;;
15398;SDS011;7797;51.428;6.756;2023-11-19T14:30:12;13.90;;;4.33;;
15398;SDS011;7797;51.428;6.756;2023-11-19T14:32:40;10.60;;;3.27;;
15398;SDS011;7797;51.428;6.756;2023-11-19T14:35:12;11.30;;;4.07;;
15398;SDS011;7797;51.428;6.756;2023-11-19T14:37:39;11.83;;;3.70;;
15398;SDS011;7797;51.428;6.756;2023-11-19T14:40:06;10.13;;;4.00;;
15398;SDS011;7797;51.428;6.756;2023-11-19T14:42:36;11.60;;;3.10;;
15398;SDS011;7797;51.428;6.756;2023-11-19T14:45:06;12.63;;;3.67;;
15398;SDS011;7797;51.428;6.756;2023-11-19T14:47:38;11.67;;;4.60;;
15398;SDS011;7797;51.428;6.756;2023-11-19T14:50:06;12.23;;;3.93;;
15398;SDS011;7797;51.428;6.756;2023-11-19T14:52:34;5.03;;;2.60;;
15398;SDS011;7797;51.428;6.756;2023-11-19T14:55:02;7.90;;;2.50;;
15398;SDS011;7797;51.428;6.756;2023-11-19T14:57:29;8.47;;;2.90;;
15398;SDS011;7797;51.428;6.756;2023-11-19T14:59:59;10.77;;;2.53;;
15398;SDS011;7797;51.428;6.756;2023-11-19T15:02:25;11.90;;;3.97;;
15398;SDS011;7797;51.428;6.756;2023-11-19T15:04:52;9.83;;;3.00;;
15398;SDS011;7797;51.428;6.756;2023-11-19T15:07:19;17.13;;;8.03;;
15398;SDS011;7797;51.428;6.756;2023-11-19T15:09:47;15.40;;;7.87;;
15398;SDS011;7797;51.428;6.756;2023-11-19T15:12:14;13.37;;;6.27;;
15398;SDS011;7797;51.428;6.756;2023-11-19T15:14:42;10.23;;;3.23;;
15398;SDS011;7797;51.428;6.756;2023-11-19T15:17:08;10.03;;;4.03;;
15398;SDS011;7797;51.428;6.756;2023-11-19T15:19:35;16.07;;;2.90;;
15398;SDS011;7797;51.428;6.756;2023-11-19T15:22:02;15.17;;;3.67;;
15398;SDS011;7797;51.428;6.756;2023-11-19T15:24:32;11.80;;;3.60;;